Time;durP1;ratioP1;P1;durP2;ratioP2;P2;SDS_P1;SDS_P2;PMS_P1;PMS_P2;Temp;Humidity;BMP_temperature;BMP_pressure;BME280_temperature;BME280_humidity;BME280_pressure;Samples;Min_cycle;Max_cycle;Signal;HPM_P1;HPM_P2
2020/12/26 00:02:12;;;;;;;12.23;3.57;;;;;;;;;;5016561;28;20182;-70
2020/12/26 00:04:37;;;;;;;16.47;4.00;;;;;;;;;;5020014;28;20190;-70
2020/12/26 00:07:06;;;;;;;9.73;3.63;;;;;;;;;;5010733;28;20562;-71
2020/12/26 00:09:31;;;;;;;7.97;3.87;;;;;;;;;;5019184;28;20186;-72
2020/12/26 00:11:57;;;;;;;12.10;3.90;;;;;;;;;;5007549;28;20183;-71
2020/12/26 00:14:31;;;;;;;11.90;3.60;;;;;;;;;;5022786;28;20194;-69
2020/12/26 00:16:57;;;;;;;8.60;3.40;;;;;;;;;;5018658;28;20183;-72
2020/12/26 00:19:24;;;;;;;12.57;3.77;;;;;;;;;;5011960;28;20201;-70
2020/12/26 00:21:50;;;;;;;10.77;4.20;;;;;;;;;;5024548;28;20822;-69
2020/12/26 00:24:16;;;;;;;12.13;4.73;;;;;;;;;;5014927;28;20197;-71
2020/12/26 00:26:41;;;;;;;11.93;4.43;;;;;;;;;;5024783;28;20186;-72
2020/12/26 00:29:06;;;;;;;10.13;4.87;;;;;;;;;;5011001;28;20246;-72
2020/12/26 00:31:32;;;;;;;12.47;4.83;;;;;;;;;;5025475;28;20273;-72
2020/12/26 00:33:57;;;;;;;13.37;4.40;;;;;;;;;;5010522;28;20715;-72
2020/12/26 00:36:22;;;;;;;15.50;4.00;;;;;;;;;;5011433;28;20227;-72
2020/12/26 00:38:48;;;;;;;9.73;5.30;;;;;;;;;;5005535;28;20589;-70
2020/12/26 00:41:14;;;;;;;13.33;4.60;;;;;;;;;;5015481;28;20233;-70
2020/12/26 00:43:39;;;;;;;13.63;4.53;;;;;;;;;;5014220;28;20181;-70
2020/12/26 00:46:05;;;;;;;14.17;5.13;;;;;;;;;;5020310;28;20190;-70
2020/12/26 00:48:30;;;;;;;10.27;4.23;;;;;;;;;;5024692;28;20189;-70
2020/12/26 00:50:55;;;;;;;9.53;4.43;;;;;;;;;;5012586;28;20195;-70
2020/12/26 00:53:21;;;;;;;12.73;5.07;;;;;;;;;;5025950;28;20568;-70
2020/12/26 00:55:46;;;;;;;14.83;4.60;;;;;;;;;;5020913;28;20668;-70
2020/12/26 00:58:11;;;;;;;13.20;4.80;;;;;;;;;;5027130;28;20190;-70
2020/12/26 01:00:36;;;;;;;11.00;4.73;;;;;;;;;;5022014;28;20248;-70
2020/12/26 01:03:02;;;;;;;9.67;4.73;;;;;;;;;;5022693;28;20186;-70
2020/12/26 01:05:27;;;;;;;8.50;4.60;;;;;;;;;;5019294;28;20198;-70
2020/12/26 01:07:52;;;;;;;13.57;5.13;;;;;;;;;;5028281;28;20210;-70
2020/12/26 01:10:18;;;;;;;15.47;5.30;;;;;;;;;;5018424;28;20722;-70
2020/12/26 01:12:43;;;;;;;9.93;5.30;;;;;;;;;;5025253;28;20190;-70
2020/12/26 01:15:09;;;;;;;14.13;4.80;;;;;;;;;;5020376;28;20638;-70
2020/12/26 01:17:34;;;;;;;16.67;5.70;;;;;;;;;;5027554;28;20232;-70
2020/12/26 01:19:59;;;;;;;17.90;7.00;;;;;;;;;;5029355;28;20327;-70
2020/12/26 01:22:25;;;;;;;14.57;5.17;;;;;;;;;;5017858;28;20190;-70
2020/12/26 01:24:50;;;;;;;11.87;4.90;;;;;;;;;;5026839;28;20190;-70
2020/12/26 01:27:15;;;;;;;17.90;5.27;;;;;;;;;;5019453;28;20293;-70
2020/12/26 01:29:41;;;;;;;11.03;5.40;;;;;;;;;;5028435;28;20182;-70
2020/12/26 01:32:06;;;;;;;13.70;5.40;;;;;;;;;;5018927;28;20190;-70
2020/12/26 01:34:31;;;;;;;12.87;4.50;;;;;;;;;;5044798;28;20182;-69
2020/12/26 01:36:57;;;;;;;12.07;4.87;;;;;;;;;;5018086;28;20756;-70
2020/12/26 01:39:23;;;;;;;13.93;4.90;;;;;;;;;;5030232;28;20240;-70
2020/12/26 01:41:50;;;;;;;10.53;4.67;;;;;;;;;;5016575;28;20186;-70
2020/12/26 01:44:15;;;;;;;17.23;4.80;;;;;;;;;;5022633;28;20186;-70
2020/12/26 01:46:41;;;;;;;10.67;4.40;;;;;;;;;;5019217;28;20187;-70
2020/12/26 01:49:07;;;;;;;12.70;5.10;;;;;;;;;;5026640;28;20645;-70
2020/12/26 01:51:32;;;;;;;14.17;4.30;;;;;;;;;;5025192;28;20205;-70
2020/12/26 01:54:00;;;;;;;15.07;4.43;;;;;;;;;;5018799;28;23955;-70
2020/12/26 01:56:26;;;;;;;16.37;4.83;;;;;;;;;;5027358;28;20280;-70
2020/12/26 01:58:52;;;;;;;11.10;4.17;;;;;;;;;;5016904;28;20289;-70
2020/12/26 02:01:17;;;;;;;7.83;4.40;;;;;;;;;;5025801;28;20174;-70
2020/12/26 02:03:43;;;;;;;16.40;4.87;;;;;;;;;;5018924;28;20186;-70
2020/12/26 02:06:09;;;;;;;14.47;4.73;;;;;;;;;;5025160;28;20328;-70
2020/12/26 02:08:36;;;;;;;21.40;4.63;;;;;;;;;;5019440;28;20271;-70
2020/12/26 02:11:05;;;;;;;13.93;4.03;;;;;;;;;;5026054;28;20177;-70
2020/12/26 02:13:31;;;;;;;10.90;4.33;;;;;;;;;;5016853;28;20198;-70
2020/12/26 02:16:05;;;;;;;12.20;4.30;;;;;;;;;;5027396;28;20922;-70
2020/12/26 02:18:34;;;;;;;11.93;4.50;;;;;;;;;;5020186;28;20697;-70
2020/12/26 02:21:00;;;;;;;11.67;4.37;;;;;;;;;;5027680;28;20178;-71
2020/12/26 02:23:26;;;;;;;8.37;4.53;;;;;;;;;;5017678;28;20195;-71
2020/12/26 02:25:58;;;;;;;9.67;4.20;;;;;;;;;;5020288;28;20194;-72
2020/12/26 02:28:24;;;;;;;11.80;4.40;;;;;;;;;;5025981;28;20547;-71
2020/12/26 02:30:51;;;;;;;10.83;4.33;;;;;;;;;;5017953;28;20198;-71
2020/12/26 02:33:16;;;;;;;11.27;4.50;;;;;;;;;;5025779;28;20250;-70
2020/12/26 02:35:48;;;;;;;14.00;4.50;;;;;;;;;;5018581;28;20237;-70
2020/12/26 02:38:15;;;;;;;7.97;4.37;;;;;;;;;;5024103;28;20190;-71
2020/12/26 02:40:40;;;;;;;12.70;4.33;;;;;;;;;;5019408;28;20661;-70
2020/12/26 02:43:15;;;;;;;8.97;4.30;;;;;;;;;;5023085;28;20240;-72
2020/12/26 02:45:40;;;;;;;13.90;4.57;;;;;;;;;;5019972;28;20239;-72
2020/12/26 02:48:06;;;;;;;10.00;4.27;;;;;;;;;;5024939;28;20190;-70
2020/12/26 02:50:31;;;;;;;14.70;5.03;;;;;;;;;;5018941;28;20630;-70
2020/12/26 02:52:56;;;;;;;9.67;4.57;;;;;;;;;;5019871;28;20194;-72
2020/12/26 02:55:22;;;;;;;11.10;4.80;;;;;;;;;;5019346;28;20190;-72
2020/12/26 02:57:49;;;;;;;9.93;4.57;;;;;;;;;;5020832;28;20179;-71
2020/12/26 03:00:15;;;;;;;12.50;4.93;;;;;;;;;;5022596;28;20194;-72
2020/12/26 03:02:40;;;;;;;13.93;4.40;;;;;;;;;;5021610;28;20593;-70
2020/12/26 03:05:05;;;;;;;12.73;5.00;;;;;;;;;;5027567;28;20182;-71
2020/12/26 03:07:31;;;;;;;14.40;4.63;;;;;;;;;;5016840;28;20201;-71
2020/12/26 03:09:56;;;;;;;12.80;5.03;;;;;;;;;;5027681;28;20235;-71
2020/12/26 03:12:21;;;;;;;9.07;4.50;;;;;;;;;;5016687;28;20247;-70
2020/12/26 03:14:47;;;;;;;14.37;4.77;;;;;;;;;;5026314;28;20186;-71
2020/12/26 03:17:12;;;;;;;10.37;4.97;;;;;;;;;;5017145;28;20205;-71
2020/12/26 03:19:37;;;;;;;8.67;4.87;;;;;;;;;;5026651;28;20241;-71
2020/12/26 03:22:03;;;;;;;10.13;4.27;;;;;;;;;;5016611;28;20663;-71
2020/12/26 03:24:28;;;;;;;11.10;4.87;;;;;;;;;;5013992;28;20656;-71
2020/12/26 03:26:53;;;;;;;14.00;4.43;;;;;;;;;;5016226;28;20269;-71
2020/12/26 03:29:19;;;;;;;9.47;4.83;;;;;;;;;;5025142;28;20629;-71
2020/12/26 03:31:44;;;;;;;9.57;4.80;;;;;;;;;;5012895;28;20656;-71
2020/12/26 03:34:09;;;;;;;13.23;6.57;;;;;;;;;;5024943;28;20189;-71
2020/12/26 03:36:34;;;;;;;12.77;4.20;;;;;;;;;;5023027;28;20309;-71
2020/12/26 03:39:00;;;;;;;12.90;4.80;;;;;;;;;;5017612;28;20621;-70
2020/12/26 03:41:25;;;;;;;13.07;4.70;;;;;;;;;;5026120;28;20196;-71
2020/12/26 03:43:50;;;;;;;8.43;3.97;;;;;;;;;;5015225;28;20193;-70
2020/12/26 03:46:16;;;;;;;8.03;4.23;;;;;;;;;;5023792;28;20283;-70
2020/12/26 03:48:41;;;;;;;12.07;4.30;;;;;;;;;;5017056;28;20194;-72
2020/12/26 03:51:06;;;;;;;13.40;4.97;;;;;;;;;;5024110;28;20198;-72
2020/12/26 03:53:32;;;;;;;12.40;4.67;;;;;;;;;;5016313;28;20309;-69
2020/12/26 03:55:57;;;;;;;9.57;4.67;;;;;;;;;;5036432;28;20195;-69
2020/12/26 03:58:22;;;;;;;9.80;4.30;;;;;;;;;;5016696;28;20259;-69
2020/12/26 04:00:48;;;;;;;10.93;4.27;;;;;;;;;;5024780;28;20627;-69
2020/12/26 04:03:13;;;;;;;9.30;4.40;;;;;;;;;;5025792;28;20193;-69
2020/12/26 04:05:38;;;;;;;12.23;4.70;;;;;;;;;;5015175;28;20194;-69
2020/12/26 04:08:03;;;;;;;11.53;4.77;;;;;;;;;;5025682;28;20616;-69
2020/12/26 04:10:29;;;;;;;9.90;4.37;;;;;;;;;;5017187;28;20486;-69
2020/12/26 04:12:54;;;;;;;10.40;4.27;;;;;;;;;;5023087;28;20216;-69
2020/12/26 04:15:20;;;;;;;12.77;4.77;;;;;;;;;;5016802;28;20248;-69
2020/12/26 04:17:45;;;;;;;12.23;4.13;;;;;;;;;;5023002;28;20190;-72
2020/12/26 04:20:10;;;;;;;6.83;4.07;;;;;;;;;;5014408;28;20214;-73
2020/12/26 04:22:36;;;;;;;8.70;4.47;;;;;;;;;;5024854;28;20621;-72
2020/12/26 04:25:01;;;;;;;10.07;4.80;;;;;;;;;;5015592;28;20213;-72
2020/12/26 04:27:26;;;;;;;7.73;4.07;;;;;;;;;;5025256;28;20186;-72
2020/12/26 04:29:51;;;;;;;8.47;4.90;;;;;;;;;;5012721;28;20233;-72
2020/12/26 04:32:17;;;;;;;10.57;4.43;;;;;;;;;;5025516;28;20190;-71
2020/12/26 04:34:45;;;;;;;11.10;4.80;;;;;;;;;;5018434;28;20198;-72
2020/12/26 04:37:10;;;;;;;9.10;5.07;;;;;;;;;;5020426;28;20277;-69
2020/12/26 04:39:36;;;;;;;8.77;5.00;;;;;;;;;;5022471;28;20680;-72
2020/12/26 04:42:02;;;;;;;14.33;5.03;;;;;;;;;;5015009;28;20247;-72
2020/12/26 04:44:27;;;;;;;8.60;5.60;;;;;;;;;;5038999;28;20553;-72
2020/12/26 04:46:55;;;;;;;12.30;5.80;;;;;;;;;;5016603;28;20313;-69
2020/12/26 04:49:21;;;;;;;11.00;6.10;;;;;;;;;;5022078;28;20196;-69
2020/12/26 04:51:50;;;;;;;12.27;6.30;;;;;;;;;;5015663;28;20243;-69
2020/12/26 04:54:26;;;;;;;14.67;6.97;;;;;;;;;;5019241;28;20560;-72
2020/12/26 04:56:54;;;;;;;13.23;7.17;;;;;;;;;;5015091;28;20591;-71
2020/12/26 04:59:20;;;;;;;13.53;6.37;;;;;;;;;;5021529;28;20214;-71
2020/12/26 05:01:47;;;;;;;14.70;6.90;;;;;;;;;;5019250;28;20186;-72
2020/12/26 05:04:13;;;;;;;13.10;6.60;;;;;;;;;;5023006;28;20240;-72
2020/12/26 05:06:46;;;;;;;12.97;6.57;;;;;;;;;;5017006;28;20255;-69
2020/12/26 05:09:11;;;;;;;12.43;6.93;;;;;;;;;;5020497;28;20198;-69
2020/12/26 05:11:37;;;;;;;14.80;6.67;;;;;;;;;;5022415;28;20259;-69
2020/12/26 05:14:06;;;;;;;13.23;8.10;;;;;;;;;;5010136;28;20339;-72
2020/12/26 05:16:31;;;;;;;15.17;8.30;;;;;;;;;;5027624;28;20178;-69
2020/12/26 05:18:57;;;;;;;14.17;8.23;;;;;;;;;;5013862;28;20225;-69
2020/12/26 05:21:25;;;;;;;14.27;8.17;;;;;;;;;;5027290;28;20552;-69
2020/12/26 05:24:07;;;;;;;17.87;9.07;;;;;;;;;;5027479;28;20635;-69
2020/12/26 05:26:41;;;;;;;18.27;10.13;;;;;;;;;;5019887;28;20547;-69
2020/12/26 05:29:07;;;;;;;20.83;10.00;;;;;;;;;;5015218;28;20305;-71
2020/12/26 05:31:56;;;;;;;17.87;9.67;;;;;;;;;;5022848;28;20293;-71
2020/12/26 05:34:32;;;;;;;15.87;9.93;;;;;;;;;;5013170;28;20189;-69
2020/12/26 05:36:59;;;;;;;18.17;11.43;;;;;;;;;;5028839;28;20722;-69
2020/12/26 05:39:32;;;;;;;21.40;12.23;;;;;;;;;;5015883;28;20216;-69
2020/12/26 05:41:58;;;;;;;21.17;10.93;;;;;;;;;;5024543;28;20201;-69
2020/12/26 05:44:26;;;;;;;22.50;13.47;;;;;;;;;;5018473;28;20194;-71
2020/12/26 05:46:55;;;;;;;28.83;14.67;;;;;;;;;;5024361;28;20189;-69
2020/12/26 05:49:24;;;;;;;26.07;15.00;;;;;;;;;;5014653;28;20186;-69
2020/12/26 05:51:52;;;;;;;23.67;14.37;;;;;;;;;;5020525;28;20194;-69
2020/12/26 05:54:18;;;;;;;24.40;15.93;;;;;;;;;;5019528;28;20203;-69
2020/12/26 05:56:44;;;;;;;24.90;15.40;;;;;;;;;;5021059;28;20198;-69
2020/12/26 05:59:25;;;;;;;27.80;16.13;;;;;;;;;;5029313;28;20220;-69
2020/12/26 06:01:51;;;;;;;25.93;16.27;;;;;;;;;;5025469;28;20659;-69
2020/12/26 06:04:20;;;;;;;30.47;17.97;;;;;;;;;;5028057;28;20265;-69
2020/12/26 06:06:51;;;;;;;29.53;17.50;;;;;;;;;;5016369;28;20393;-69
2020/12/26 06:09:19;;;;;;;31.97;18.83;;;;;;;;;;5043346;28;20178;-69
2020/12/26 06:11:46;;;;;;;28.20;18.30;;;;;;;;;;5012913;28;20239;-69
2020/12/26 06:14:16;;;;;;;26.70;18.00;;;;;;;;;;5025974;28;20178;-71
2020/12/26 06:16:47;;;;;;;32.80;17.57;;;;;;;;;;5015661;28;20194;-71
2020/12/26 06:19:16;;;;;;;28.37;17.93;;;;;;;;;;5028484;28;20198;-71
2020/12/26 06:21:42;;;;;;;27.73;18.20;;;;;;;;;;5017080;28;20193;-72
2020/12/26 06:24:07;;;;;;;29.40;18.43;;;;;;;;;;5028886;28;20194;-69
2020/12/26 06:26:35;;;;;;;26.23;17.80;;;;;;;;;;5012939;28;20193;-70
2020/12/26 06:29:02;;;;;;;26.00;17.63;;;;;;;;;;5025906;28;20484;-69
2020/12/26 06:31:29;;;;;;;29.07;17.40;;;;;;;;;;5013588;28;20216;-69
2020/12/26 06:34:09;;;;;;;33.22;17.60;;;;;;;;;;4766142;28;10000817;-69
2020/12/26 06:36:34;;;;;;;27.47;17.13;;;;;;;;;;5008540;28;20422;-69
2020/12/26 06:39:00;;;;;;;22.53;16.00;;;;;;;;;;5020311;28;20237;-75
2020/12/26 06:41:25;;;;;;;25.37;16.13;;;;;;;;;;5008546;28;20198;-72
2020/12/26 06:43:54;;;;;;;25.50;16.47;;;;;;;;;;5021848;28;20198;-72
2020/12/26 06:46:20;;;;;;;26.70;16.57;;;;;;;;;;5016147;28;20189;-72
2020/12/26 06:48:45;;;;;;;25.53;16.40;;;;;;;;;;5008806;28;20573;-72
2020/12/26 06:51:27;;;;;;;25.40;15.90;;;;;;;;;;5016462;28;20335;-72
2020/12/26 06:53:57;;;;;;;23.10;15.17;;;;;;;;;;5012837;28;20676;-69
2020/12/26 06:56:34;;;;;;;22.10;14.27;;;;;;;;;;5018681;28;20194;-69
2020/12/26 06:59:01;;;;;;;21.90;13.70;;;;;;;;;;5007962;28;20218;-69
2020/12/26 07:01:27;;;;;;;27.30;13.93;;;;;;;;;;5017953;28;20217;-72
2020/12/26 07:04:10;;;;;;;28.20;13.43;;;;;;;;;;5011313;28;20661;-70
2020/12/26 07:06:37;;;;;;;21.80;12.63;;;;;;;;;;5016043;28;20213;-70
2020/12/26 07:09:03;;;;;;;21.43;13.07;;;;;;;;;;5006140;28;20186;-70
2020/12/26 07:11:28;;;;;;;20.87;12.30;;;;;;;;;;5019036;28;20320;-71
2020/12/26 07:13:54;;;;;;;18.97;12.20;;;;;;;;;;5023256;28;20320;-71
2020/12/26 07:16:45;;;;;;;22.37;12.90;;;;;;;;;;5015705;28;20174;-71
2020/12/26 07:19:19;;;;;;;21.10;11.90;;;;;;;;;;5008283;28;20218;-71
2020/12/26 07:21:48;;;;;;;24.00;12.27;;;;;;;;;;5016189;28;20277;-69
2020/12/26 07:24:17;;;;;;;22.60;11.97;;;;;;;;;;5009433;28;20200;-72
2020/12/26 07:26:43;;;;;;;16.77;11.03;;;;;;;;;;5016424;28;20777;-72
2020/12/26 07:29:25;;;;;;;15.53;10.80;;;;;;;;;;5007889;28;20190;-72
2020/12/26 07:31:51;;;;;;;14.83;10.20;;;;;;;;;;5014518;28;20536;-72
2020/12/26 07:34:36;;;;;;;17.27;10.97;;;;;;;;;;5008427;28;20190;-72
2020/12/26 07:37:02;;;;;;;16.20;10.30;;;;;;;;;;5013333;28;20217;-72
2020/12/26 07:39:27;;;;;;;17.87;10.03;;;;;;;;;;5013439;28;20217;-69
2020/12/26 07:41:54;;;;;;;13.17;9.80;;;;;;;;;;5017698;28;20215;-72
2020/12/26 07:44:20;;;;;;;17.60;9.50;;;;;;;;;;5014950;28;20186;-69
2020/12/26 07:46:46;;;;;;;15.67;9.40;;;;;;;;;;5009486;28;20556;-72
2020/12/26 07:49:14;;;;;;;18.33;9.87;;;;;;;;;;5015568;28;20672;-70
2020/12/26 07:51:39;;;;;;;14.00;9.90;;;;;;;;;;5010626;28;20258;-71
2020/12/26 07:54:05;;;;;;;14.90;9.40;;;;;;;;;;5016820;28;20331;-71
2020/12/26 07:56:31;;;;;;;18.90;10.03;;;;;;;;;;5015707;28;20186;-71
2020/12/26 07:58:56;;;;;;;17.87;9.20;;;;;;;;;;5018386;28;20209;-71
2020/12/26 08:01:27;;;;;;;14.03;8.60;;;;;;;;;;5014367;28;20197;-71
2020/12/26 08:04:00;;;;;;;15.33;8.70;;;;;;;;;;5017113;28;20201;-71
2020/12/26 08:06:26;;;;;;;14.33;8.77;;;;;;;;;;5009799;28;20210;-71
2020/12/26 08:08:53;;;;;;;14.53;8.97;;;;;;;;;;5017432;28;20567;-71
2020/12/26 08:11:23;;;;;;;14.67;9.10;;;;;;;;;;5007980;28;20665;-71
2020/12/26 08:14:01;;;;;;;16.80;9.07;;;;;;;;;;5021433;28;20210;-71
2020/12/26 08:16:26;;;;;;;13.43;8.53;;;;;;;;;;5007760;28;20592;-71
2020/12/26 08:18:52;;;;;;;17.43;9.23;;;;;;;;;;5021498;28;20545;-71
2020/12/26 08:21:23;;;;;;;18.27;9.90;;;;;;;;;;5010336;28;20273;-71
2020/12/26 08:23:56;;;;;;;14.17;9.60;;;;;;;;;;5008011;28;20179;-71
2020/12/26 08:26:22;;;;;;;15.63;10.17;;;;;;;;;;5013718;28;20247;-72
2020/12/26 08:28:49;;;;;;;13.93;10.17;;;;;;;;;;5009805;28;20236;-71
2020/12/26 08:31:21;;;;;;;18.70;10.67;;;;;;;;;;5017487;28;20182;-71
2020/12/26 08:34:09;;;;;;;17.43;10.47;;;;;;;;;;5003887;28;20619;-71
2020/12/26 08:36:39;;;;;;;14.40;9.83;;;;;;;;;;5016857;28;20225;-73
2020/12/26 08:39:07;;;;;;;15.47;10.57;;;;;;;;;;5008998;28;20222;-72
2020/12/26 08:41:33;;;;;;;14.70;9.93;;;;;;;;;;5020048;28;20178;-71
2020/12/26 08:43:59;;;;;;;16.53;10.20;;;;;;;;;;5006264;28;20223;-71
2020/12/26 08:46:27;;;;;;;15.63;10.63;;;;;;;;;;5015613;28;20186;-71
2020/12/26 08:48:55;;;;;;;17.43;10.60;;;;;;;;;;5003519;28;20425;-71
2020/12/26 08:51:23;;;;;;;18.23;10.93;;;;;;;;;;5017325;28;20193;-71
2020/12/26 08:53:49;;;;;;;22.07;11.60;;;;;;;;;;5004672;28;20549;-71
2020/12/26 08:56:15;;;;;;;18.03;11.73;;;;;;;;;;5015894;28;20182;-71
2020/12/26 08:58:48;;;;;;;17.80;11.67;;;;;;;;;;5008106;28;20206;-71
2020/12/26 09:01:14;;;;;;;15.70;10.70;;;;;;;;;;5017623;28;20212;-71
2020/12/26 09:03:47;;;;;;;19.77;11.93;;;;;;;;;;5021744;28;20211;-71
2020/12/26 09:06:12;;;;;;;16.63;11.90;;;;;;;;;;5016019;28;20206;-71
2020/12/26 09:08:38;;;;;;;18.43;12.83;;;;;;;;;;5034597;28;20186;-71
2020/12/26 09:11:04;;;;;;;23.30;13.80;;;;;;;;;;5014592;28;20273;-71
2020/12/26 09:13:35;;;;;;;24.10;14.00;;;;;;;;;;5020097;28;20187;-71
2020/12/26 09:16:06;;;;;;;20.97;12.93;;;;;;;;;;4996724;28;20193;-71
2020/12/26 09:18:43;;;;;;;23.77;13.23;;;;;;;;;;5019042;28;20273;-71
2020/12/26 09:21:18;;;;;;;20.33;12.83;;;;;;;;;;5008635;28;20572;-71
2020/12/26 09:23:44;;;;;;;22.47;14.43;;;;;;;;;;5014746;28;20273;-71
2020/12/26 09:26:12;;;;;;;22.33;13.83;;;;;;;;;;5015910;28;20178;-70
2020/12/26 09:28:55;;;;;;;21.93;13.80;;;;;;;;;;5018542;28;20194;-71
2020/12/26 09:31:26;;;;;;;22.30;14.47;;;;;;;;;;5014238;28;20597;-70
2020/12/26 09:33:57;;;;;;;21.47;14.87;;;;;;;;;;5019390;28;20209;-71
2020/12/26 09:36:25;;;;;;;24.10;15.97;;;;;;;;;;5023217;28;20343;-70
2020/12/26 09:38:51;;;;;;;22.30;15.93;;;;;;;;;;5020650;28;20235;-70
2020/12/26 09:41:17;;;;;;;22.80;15.07;;;;;;;;;;5009929;28;20563;-71
2020/12/26 09:43:44;;;;;;;22.40;15.20;;;;;;;;;;5019180;28;20186;-70
2020/12/26 09:46:09;;;;;;;25.20;15.23;;;;;;;;;;5016425;28;20248;-70
2020/12/26 09:48:35;;;;;;;24.83;15.57;;;;;;;;;;5019259;28;20186;-70
2020/12/26 09:51:00;;;;;;;23.83;16.20;;;;;;;;;;5017277;28;20174;-70
2020/12/26 09:53:26;;;;;;;19.17;15.13;;;;;;;;;;5009564;28;20846;-70
2020/12/26 09:55:52;;;;;;;25.53;15.47;;;;;;;;;;5023434;28;20186;-70
2020/12/26 09:58:17;;;;;;;27.93;16.47;;;;;;;;;;5008059;28;20204;-70
2020/12/26 10:00:43;;;;;;;18.97;14.53;;;;;;;;;;5017012;28;20261;-71
2020/12/26 10:03:08;;;;;;;22.07;14.00;;;;;;;;;;5007156;28;20191;-71
2020/12/26 10:05:34;;;;;;;21.87;13.93;;;;;;;;;;5015401;28;20729;-71
2020/12/26 10:07:59;;;;;;;20.73;13.10;;;;;;;;;;5010460;28;20209;-71
2020/12/26 10:10:24;;;;;;;21.03;13.10;;;;;;;;;;5022112;28;20186;-71
2020/12/26 10:12:50;;;;;;;18.27;12.23;;;;;;;;;;5012995;28;20201;-70
2020/12/26 10:15:18;;;;;;;18.40;12.83;;;;;;;;;;5021850;28;20696;-71
2020/12/26 10:17:43;;;;;;;18.83;12.30;;;;;;;;;;5014262;28;20190;-71
2020/12/26 10:20:09;;;;;;;19.27;12.27;;;;;;;;;;5023267;28;20218;-70
2020/12/26 10:22:34;;;;;;;16.00;11.43;;;;;;;;;;5025621;28;20700;-71
2020/12/26 10:25:00;;;;;;;14.27;11.03;;;;;;;;;;5015776;28;20210;-71
2020/12/26 10:27:25;;;;;;;22.83;12.00;;;;;;;;;;5020487;28;20194;-70
2020/12/26 10:29:50;;;;;;;18.47;10.20;;;;;;;;;;5017586;28;20210;-70
2020/12/26 10:32:16;;;;;;;18.93;10.67;;;;;;;;;;5022393;28;20667;-70
2020/12/26 10:34:41;;;;;;;19.17;10.40;;;;;;;;;;5017770;28;20770;-70
2020/12/26 10:37:06;;;;;;;14.63;10.20;;;;;;;;;;5022378;28;20706;-70
2020/12/26 10:39:32;;;;;;;12.47;9.20;;;;;;;;;;5020896;28;20749;-70
2020/12/26 10:41:57;;;;;;;17.03;9.60;;;;;;;;;;5017475;28;20329;-70
2020/12/26 10:44:22;;;;;;;13.30;8.97;;;;;;;;;;5019174;28;20315;-70
2020/12/26 10:46:48;;;;;;;14.03;8.67;;;;;;;;;;5023112;28;20287;-70
2020/12/26 10:49:13;;;;;;;14.43;8.47;;;;;;;;;;5017925;28;20177;-71
2020/12/26 10:51:39;;;;;;;11.07;7.97;;;;;;;;;;5022193;28;20186;-70
2020/12/26 10:54:04;;;;;;;14.57;8.87;;;;;;;;;;5024593;28;20530;-70
2020/12/26 10:56:29;;;;;;;12.13;8.40;;;;;;;;;;5014817;28;20194;-70
2020/12/26 10:58:55;;;;;;;14.03;8.37;;;;;;;;;;5018488;28;20202;-71
2020/12/26 11:01:32;;;;;;;13.07;8.47;;;;;;;;;;5016398;28;20201;-71
2020/12/26 11:03:57;;;;;;;10.63;7.60;;;;;;;;;;5021912;28;20189;-71
2020/12/26 11:06:23;;;;;;;15.77;8.20;;;;;;;;;;5009339;28;20215;-71
2020/12/26 11:08:48;;;;;;;12.37;7.63;;;;;;;;;;5016594;28;20182;-71
2020/12/26 11:11:13;;;;;;;9.67;6.60;;;;;;;;;;5008195;28;20312;-71
2020/12/26 11:13:39;;;;;;;11.40;7.07;;;;;;;;;;5011268;28;20327;-71
2020/12/26 11:16:04;;;;;;;10.97;6.87;;;;;;;;;;5007755;28;20268;-71
2020/12/26 11:18:29;;;;;;;15.40;7.33;;;;;;;;;;5017460;28;20271;-70
2020/12/26 11:20:55;;;;;;;11.63;6.43;;;;;;;;;;5012891;28;20649;-71
2020/12/26 11:23:20;;;;;;;11.33;6.57;;;;;;;;;;5018445;28;20187;-71
2020/12/26 11:25:45;;;;;;;13.23;7.30;;;;;;;;;;5019983;28;20685;-71
2020/12/26 11:28:11;;;;;;;12.43;6.70;;;;;;;;;;5012727;28;20182;-71
2020/12/26 11:30:36;;;;;;;12.87;7.17;;;;;;;;;;5023216;28;20766;-71
2020/12/26 11:33:02;;;;;;;12.07;6.20;;;;;;;;;;5013026;28;20215;-69
2020/12/26 11:35:27;;;;;;;12.23;6.70;;;;;;;;;;5023452;28;20253;-71
2020/12/26 11:37:52;;;;;;;11.70;6.80;;;;;;;;;;5012855;28;20278;-70
2020/12/26 11:40:18;;;;;;;11.30;6.67;;;;;;;;;;5035004;28;20983;-71
2020/12/26 11:42:43;;;;;;;10.87;5.90;;;;;;;;;;5016101;28;20268;-71
2020/12/26 11:45:09;;;;;;;10.77;6.07;;;;;;;;;;5025350;28;20261;-71
2020/12/26 11:47:36;;;;;;;11.13;5.77;;;;;;;;;;5014040;28;20204;-71
2020/12/26 11:50:02;;;;;;;10.03;5.77;;;;;;;;;;5024028;28;20640;-71
2020/12/26 11:52:27;;;;;;;11.57;5.80;;;;;;;;;;5017672;28;20204;-71
2020/12/26 11:54:53;;;;;;;9.37;5.73;;;;;;;;;;5019637;28;20186;-71
2020/12/26 11:57:18;;;;;;;14.00;5.60;;;;;;;;;;5021621;28;20707;-70
2020/12/26 11:59:43;;;;;;;8.30;5.23;;;;;;;;;;5015322;28;20634;-70
2020/12/26 12:02:09;;;;;;;10.07;5.37;;;;;;;;;;5027264;28;20186;-70
2020/12/26 12:04:34;;;;;;;11.27;5.40;;;;;;;;;;5005516;28;20183;-71
2020/12/26 12:07:00;;;;;;;10.50;5.37;;;;;;;;;;5017003;28;20229;-71
2020/12/26 12:09:25;;;;;;;8.90;5.00;;;;;;;;;;5007911;28;20267;-70
2020/12/26 12:11:54;;;;;;;9.90;5.40;;;;;;;;;;5031858;28;20338;-70
2020/12/26 12:14:19;;;;;;;10.13;4.73;;;;;;;;;;5009336;28;20196;-71
2020/12/26 12:16:48;;;;;;;9.77;4.90;;;;;;;;;;5020072;28;20182;-71
2020/12/26 12:19:13;;;;;;;10.60;5.00;;;;;;;;;;5010809;28;20213;-71
2020/12/26 12:21:39;;;;;;;10.73;4.30;;;;;;;;;;5039648;28;20263;-71
2020/12/26 12:24:05;;;;;;;7.23;3.90;;;;;;;;;;5009884;28;20178;-71
2020/12/26 12:26:30;;;;;;;10.93;4.00;;;;;;;;;;5021621;28;20820;-71
2020/12/26 12:28:55;;;;;;;8.13;3.97;;;;;;;;;;5020407;28;20174;-71
2020/12/26 12:31:25;;;;;;;9.47;4.03;;;;;;;;;;5014090;28;20195;-71
2020/12/26 12:33:51;;;;;;;7.73;3.63;;;;;;;;;;5015037;28;20187;-71
2020/12/26 12:36:16;;;;;;;5.83;3.80;;;;;;;;;;5025848;28;20575;-71
2020/12/26 12:38:42;;;;;;;8.50;3.67;;;;;;;;;;5024690;28;20595;-70
2020/12/26 12:41:07;;;;;;;8.47;3.50;;;;;;;;;;5018271;28;20248;-70
2020/12/26 12:43:33;;;;;;;7.30;3.23;;;;;;;;;;5027720;28;20281;-71
2020/12/26 12:45:58;;;;;;;10.70;3.30;;;;;;;;;;5018395;28;20679;-71
2020/12/26 12:48:23;;;;;;;7.40;3.60;;;;;;;;;;5028549;28;20186;-70
2020/12/26 12:50:49;;;;;;;6.60;3.77;;;;;;;;;;5021259;28;20269;-70
2020/12/26 12:53:14;;;;;;;5.47;3.57;;;;;;;;;;5029181;28;20516;-71
2020/12/26 12:55:39;;;;;;;8.00;3.70;;;;;;;;;;5022937;28;20205;-71
2020/12/26 12:58:05;;;;;;;5.80;3.67;;;;;;;;;;5024019;28;20593;-70
2020/12/26 13:00:30;;;;;;;6.80;3.83;;;;;;;;;;5026719;28;20209;-71
2020/12/26 13:02:55;;;;;;;7.10;3.67;;;;;;;;;;5020957;28;20197;-71
2020/12/26 13:05:20;;;;;;;8.60;4.17;;;;;;;;;;5027454;28;20190;-71
2020/12/26 13:07:47;;;;;;;8.87;3.97;;;;;;;;;;5020953;28;20218;-70
2020/12/26 13:10:13;;;;;;;8.67;4.33;;;;;;;;;;5030757;28;20181;-71
2020/12/26 13:12:38;;;;;;;11.27;3.67;;;;;;;;;;5017403;28;20186;-71
2020/12/26 13:15:03;;;;;;;7.10;3.57;;;;;;;;;;5027838;28;20200;-71
2020/12/26 13:17:29;;;;;;;7.20;3.67;;;;;;;;;;5016713;28;20182;-71
2020/12/26 13:19:54;;;;;;;11.53;4.23;;;;;;;;;;5028833;28;20206;-71
2020/12/26 13:22:19;;;;;;;7.17;3.53;;;;;;;;;;5016267;28;20299;-71
2020/12/26 13:24:45;;;;;;;9.93;3.50;;;;;;;;;;5024994;28;20197;-71
2020/12/26 13:27:10;;;;;;;8.60;3.50;;;;;;;;;;5011797;28;20195;-71
2020/12/26 13:29:35;;;;;;;8.07;3.00;;;;;;;;;;5011359;28;20194;-71
2020/12/26 13:32:01;;;;;;;7.53;3.50;;;;;;;;;;5027334;28;20272;-70
2020/12/26 13:34:26;;;;;;;6.30;3.53;;;;;;;;;;5017724;28;20273;-71
2020/12/26 13:36:55;;;;;;;5.83;3.70;;;;;;;;;;5028999;28;20221;-71
2020/12/26 13:39:21;;;;;;;6.40;3.80;;;;;;;;;;5014460;28;20212;-70
2020/12/26 13:41:49;;;;;;;6.40;3.30;;;;;;;;;;5026443;28;20178;-70
2020/12/26 13:44:15;;;;;;;8.27;4.20;;;;;;;;;;5016770;28;20221;-70
2020/12/26 13:46:44;;;;;;;8.60;4.67;;;;;;;;;;5016471;28;20214;-70
2020/12/26 13:49:09;;;;;;;6.90;3.57;;;;;;;;;;5019559;28;20188;-70
2020/12/26 13:51:34;;;;;;;6.57;3.70;;;;;;;;;;5021786;28;20262;-71
2020/12/26 13:53:59;;;;;;;8.17;3.73;;;;;;;;;;5015324;28;20187;-70
2020/12/26 13:56:25;;;;;;;7.03;3.33;;;;;;;;;;5019317;28;20189;-70
2020/12/26 13:58:50;;;;;;;6.97;3.40;;;;;;;;;;5022883;28;20198;-71
2020/12/26 14:01:16;;;;;;;10.23;3.63;;;;;;;;;;5020786;28;20183;-71
2020/12/26 14:03:41;;;;;;;6.43;3.40;;;;;;;;;;5023984;28;20179;-71
2020/12/26 14:06:12;;;;;;;6.90;3.27;;;;;;;;;;5021793;28;20233;-71
2020/12/26 14:08:37;;;;;;;9.27;3.70;;;;;;;;;;5022393;28;20199;-71
2020/12/26 14:11:04;;;;;;;8.90;3.50;;;;;;;;;;5019930;28;20213;-71
2020/12/26 14:13:31;;;;;;;5.80;3.20;;;;;;;;;;5023867;28;20511;-71
2020/12/26 14:15:56;;;;;;;7.77;3.40;;;;;;;;;;5017868;28;20244;-71
2020/12/26 14:18:22;;;;;;;9.27;3.13;;;;;;;;;;5024252;28;20194;-71
2020/12/26 14:20:49;;;;;;;6.50;3.20;;;;;;;;;;5014084;28;20280;-71
2020/12/26 14:23:15;;;;;;;6.77;3.27;;;;;;;;;;5026374;28;20190;-71
2020/12/26 14:25:40;;;;;;;13.30;5.10;;;;;;;;;;5015396;28;20194;-71
2020/12/26 14:28:05;;;;;;;8.47;5.07;;;;;;;;;;5022563;28;20555;-71